sensor_id;sensor_type;location;lat;lon;timestamp;temperature;humidity
2611;DHT22;5612;51.134;17.058;2023-03-01T00:00:11;-0.80;1.00
2611;DHT22;5612;51.134;17.058;2023-03-01T00:02:41;-0.80;1.00
2611;DHT22;5612;51.134;17.058;2023-03-01T00:05:10;-0.80;1.00
2611;DHT22;5612;51.134;17.058;2023-03-01T00:07:40;-0.80;1.00
2611;DHT22;5612;51.134;17.058;2023-03-01T00:10:11;-0.80;1.00
2611;DHT22;5612;51.134;17.058;2023-03-01T00:12:41;-0.80;1.00
2611;DHT22;5612;51.134;17.058;2023-03-01T00:15:10;-0.90;1.00
2611;DHT22;5612;51.134;17.058;2023-03-01T00:17:39;-0.90;1.00
2611;DHT22;5612;51.134;17.058;2023-03-01T00:20:09;-0.90;4.60
2611;DHT22;5612;51.134;17.058;2023-03-01T00:22:38;-1.00;19.80
2611;DHT22;5612;51.134;17.058;2023-03-01T00:25:08;-1.10;99.90
2611;DHT22;5612;51.134;17.058;2023-03-01T00:27:37;-1.10;99.90
2611;DHT22;5612;51.134;17.058;2023-03-01T00:30:08;-1.30;94.50
2611;DHT22;5612;51.134;17.058;2023-03-01T00:32:38;-1.20;99.90
2611;DHT22;5612;51.134;17.058;2023-03-01T00:35:07;-1.20;99.90
2611;DHT22;5612;51.134;17.058;2023-03-01T00:37:36;-1.20;99.90
2611;DHT22;5612;51.134;17.058;2023-03-01T00:40:07;-1.20;99.90
2611;DHT22;5612;51.134;17.058;2023-03-01T00:42:37;-1.10;97.80
2611;DHT22;5612;51.134;17.058;2023-03-01T00:45:09;-1.20;97.00
2611;DHT22;5612;51.134;17.058;2023-03-01T00:47:38;-1.40;99.90
2611;DHT22;5612;51.134;17.058;2023-03-01T00:50:08;-1.40;99.90
2611;DHT22;5612;51.134;17.058;2023-03-01T00:52:38;-1.30;99.90
2611;DHT22;5612;51.134;17.058;2023-03-01T00:55:07;-1.30;99.90
2611;DHT22;5612;51.134;17.058;2023-03-01T00:57:39;-1.30;99.90
2611;DHT22;5612;51.134;17.058;2023-03-01T01:00:10;-1.30;1.00
2611;DHT22;5612;51.134;17.058;2023-03-01T01:02:40;-1.30;1.00
2611;DHT22;5612;51.134;17.058;2023-03-01T01:05:09;-1.40;99.90
2611;DHT22;5612;51.134;17.058;2023-03-01T01:07:38;-1.40;99.90
2611;DHT22;5612;51.134;17.058;2023-03-01T01:10:08;-1.40;99.90
2611;DHT22;5612;51.134;17.058;2023-03-01T01:12:45;-1.40;99.90
2611;DHT22;5612;51.134;17.058;2023-03-01T01:15:15;-1.40;99.90
2611;DHT22;5612;51.134;17.058;2023-03-01T01:17:44;-1.60;99.90
2611;DHT22;5612;51.134;17.058;2023-03-01T01:20:13;-1.60;99.90
2611;DHT22;5612;51.134;17.058;2023-03-01T01:22:59;-1.60;99.90
2611;DHT22;5612;51.134;17.058;2023-03-01T01:25:28;-1.60;99.90
2611;DHT22;5612;51.134;17.058;2023-03-01T01:27:57;-1.50;99.90
2611;DHT22;5612;51.134;17.058;2023-03-01T01:30:27;-1.50;99.90
2611;DHT22;5612;51.134;17.058;2023-03-01T01:32:56;-1.50;1.00
2611;DHT22;5612;51.134;17.058;2023-03-01T01:35:25;-1.50;1.00
2611;DHT22;5612;51.134;17.058;2023-03-01T01:37:54;-1.60;1.00
2611;DHT22;5612;51.134;17.058;2023-03-01T01:40:23;-1.60;1.00
2611;DHT22;5612;51.134;17.058;2023-03-01T01:42:51;-1.60;1.00
2611;DHT22;5612;51.134;17.058;2023-03-01T01:45:32;-1.50;1.00
2611;DHT22;5612;51.134;17.058;2023-03-01T01:48:06;-1.70;1.00
2611;DHT22;5612;51.134;17.058;2023-03-01T01:50:39;-1.80;1.00
2611;DHT22;5612;51.134;17.058;2023-03-01T01:53:11;-1.80;1.00
2611;DHT22;5612;51.134;17.058;2023-03-01T01:55:43;-1.80;1.00
2611;DHT22;5612;51.134;17.058;2023-03-01T01:58:16;-1.80;1.00
2611;DHT22;5612;51.134;17.058;2023-03-01T02:00:48;-1.80;1.00
2611;DHT22;5612;51.134;17.058;2023-03-01T02:03:20;-1.80;1.00
2611;DHT22;5612;51.134;17.058;2023-03-01T02:05:56;-1.80;1.00
2611;DHT22;5612;51.134;17.058;2023-03-01T02:08:28;-1.90;1.00
2611;DHT22;5612;51.134;17.058;2023-03-01T02:10:58;-1.90;1.00
2611;DHT22;5612;51.134;17.058;2023-03-01T02:13:28;-1.90;1.00
2611;DHT22;5612;51.134;17.058;2023-03-01T02:16:02;-2.00;1.00
2611;DHT22;5612;51.134;17.058;2023-03-01T02:18:31;-2.20;93.70
2611;DHT22;5612;51.134;17.058;2023-03-01T02:21:08;-2.10;99.90
2611;DHT22;5612;51.134;17.058;2023-03-01T02:23:40;-2.20;99.90
2611;DHT22;5612;51.134;17.058;2023-03-01T02:26:17;-2.30;1.00
2611;DHT22;5612;51.134;17.058;2023-03-01T02:28:48;-2.30;1.00
2611;DHT22;5612;51.134;17.058;2023-03-01T02:31:20;-2.10;99.90
2611;DHT22;5612;51.134;17.058;2023-03-01T02:34:09;-2.10;99.90
2611;DHT22;5612;51.134;17.058;2023-03-01T02:36:41;-2.10;99.90
2611;DHT22;5612;51.134;17.058;2023-03-01T02:39:14;-2.20;99.90
2611;DHT22;5612;51.134;17.058;2023-03-01T02:41:49;-2.10;99.90
2611;DHT22;5612;51.134;17.058;2023-03-01T02:44:21;-2.10;1.00
2611;DHT22;5612;51.134;17.058;2023-03-01T02:46:51;-2.10;41.90
2611;DHT22;5612;51.134;17.058;2023-03-01T02:49:25;-2.10;20.50
2611;DHT22;5612;51.134;17.058;2023-03-01T02:52:20;-2.10;99.90
2611;DHT22;5612;51.134;17.058;2023-03-01T02:54:54;-2.10;14.80
2611;DHT22;5612;51.134;17.058;2023-03-01T02:57:28;-2.10;24.00
2611;DHT22;5612;51.134;17.058;2023-03-01T03:00:03;-2.20;41.80
2611;DHT22;5612;51.134;17.058;2023-03-01T03:02:36;-2.20;99.90
2611;DHT22;5612;51.134;17.058;2023-03-01T03:05:08;-2.20;99.90
2611;DHT22;5612;51.134;17.058;2023-03-01T03:07:39;-2.30;99.90
2611;DHT22;5612;51.134;17.058;2023-03-01T03:10:10;-2.40;1.00
2611;DHT22;5612;51.134;17.058;2023-03-01T03:12:41;-2.40;99.90
2611;DHT22;5612;51.134;17.058;2023-03-01T03:15:11;-2.30;99.90
2611;DHT22;5612;51.134;17.058;2023-03-01T03:17:41;-2.40;99.90
2611;DHT22;5612;51.134;17.058;2023-03-01T03:20:15;-2.40;99.90
2611;DHT22;5612;51.134;17.058;2023-03-01T03:22:47;-2.50;1.00
2611;DHT22;5612;51.134;17.058;2023-03-01T03:25:17;-2.40;1.00
2611;DHT22;5612;51.134;17.058;2023-03-01T03:27:47;-2.30;99.90
2611;DHT22;5612;51.134;17.058;2023-03-01T03:30:19;-2.40;99.90
2611;DHT22;5612;51.134;17.058;2023-03-01T03:32:48;-2.40;99.90
2611;DHT22;5612;51.134;17.058;2023-03-01T03:35:22;-2.40;99.90
2611;DHT22;5612;51.134;17.058;2023-03-01T03:37:52;-2.40;99.90
2611;DHT22;5612;51.134;17.058;2023-03-01T03:40:35;-2.40;99.90
2611;DHT22;5612;51.134;17.058;2023-03-01T03:43:05;-2.40;99.90
2611;DHT22;5612;51.134;17.058;2023-03-01T03:45:36;-2.40;99.90
2611;DHT22;5612;51.134;17.058;2023-03-01T03:48:06;-2.40;15.80
2611;DHT22;5612;51.134;17.058;2023-03-01T03:50:40;-2.60;99.90
2611;DHT22;5612;51.134;17.058;2023-03-01T03:53:12;-2.60;1.00
2611;DHT22;5612;51.134;17.058;2023-03-01T03:55:41;-2.60;99.90
2611;DHT22;5612;51.134;17.058;2023-03-01T03:58:12;-2.60;99.90
2611;DHT22;5612;51.134;17.058;2023-03-01T04:00:44;-2.60;1.00
2611;DHT22;5612;51.134;17.058;2023-03-01T04:03:14;-2.80;99.90
2611;DHT22;5612;51.134;17.058;2023-03-01T04:05:44;-2.70;99.90
2611;DHT22;5612;51.134;17.058;2023-03-01T04:08:13;-2.70;1.00
2611;DHT22;5612;51.134;17.058;2023-03-01T04:10:44;-2.70;99.90
2611;DHT22;5612;51.134;17.058;2023-03-01T04:13:14;-2.70;99.90
2611;DHT22;5612;51.134;17.058;2023-03-01T04:15:44;-2.70;1.00
2611;DHT22;5612;51.134;17.058;2023-03-01T04:18:15;-2.70;1.00
2611;DHT22;5612;51.134;17.058;2023-03-01T04:20:44;-2.70;1.00
2611;DHT22;5612;51.134;17.058;2023-03-01T04:23:15;-2.70;1.00
2611;DHT22;5612;51.134;17.058;2023-03-01T04:25:48;-2.70;1.00
2611;DHT22;5612;51.134;17.058;2023-03-01T04:28:21;-2.70;1.00
2611;DHT22;5612;51.134;17.058;2023-03-01T04:30:53;-2.80;1.00
2611;DHT22;5612;51.134;17.058;2023-03-01T04:33:23;-2.80;1.00
2611;DHT22;5612;51.134;17.058;2023-03-01T04:35:52;-2.70;99.90
2611;DHT22;5612;51.134;17.058;2023-03-01T04:38:21;-2.80;1.00
2611;DHT22;5612;51.134;17.058;2023-03-01T04:40:51;-2.80;1.00
2611;DHT22;5612;51.134;17.058;2023-03-01T04:43:20;-2.90;1.00
2611;DHT22;5612;51.134;17.058;2023-03-01T04:45:50;-2.90;99.90
2611;DHT22;5612;51.134;17.058;2023-03-01T04:48:20;-2.80;1.00
2611;DHT22;5612;51.134;17.058;2023-03-01T04:50:49;-2.80;99.90
2611;DHT22;5612;51.134;17.058;2023-03-01T04:53:18;-2.90;1.00
2611;DHT22;5612;51.134;17.058;2023-03-01T04:55:47;-2.90;99.80
2611;DHT22;5612;51.134;17.058;2023-03-01T04:58:16;-2.90;99.90
2611;DHT22;5612;51.134;17.058;2023-03-01T05:00:46;-2.80;1.00
2611;DHT22;5612;51.134;17.058;2023-03-01T05:03:15;-2.80;1.00
2611;DHT22;5612;51.134;17.058;2023-03-01T05:05:48;-2.80;99.90
2611;DHT22;5612;51.134;17.058;2023-03-01T05:08:17;-2.90;99.90
2611;DHT22;5612;51.134;17.058;2023-03-01T05:10:50;-2.80;1.00
2611;DHT22;5612;51.134;17.058;2023-03-01T05:13:19;-2.90;1.00
2611;DHT22;5612;51.134;17.058;2023-03-01T05:15:54;-2.90;1.00
2611;DHT22;5612;51.134;17.058;2023-03-01T05:18:23;-2.90;1.00
2611;DHT22;5612;51.134;17.058;2023-03-01T05:20:55;-2.90;99.90
2611;DHT22;5612;51.134;17.058;2023-03-01T05:23:25;-2.90;99.90
2611;DHT22;5612;51.134;17.058;2023-03-01T05:25:56;-2.90;99.90
2611;DHT22;5612;51.134;17.058;2023-03-01T05:28:27;-3.00;99.90
2611;DHT22;5612;51.134;17.058;2023-03-01T05:30:57;-3.00;99.90
2611;DHT22;5612;51.134;17.058;2023-03-01T05:33:27;-3.10;1.00
2611;DHT22;5612;51.134;17.058;2023-03-01T05:35:59;-3.10;99.90
2611;DHT22;5612;51.134;17.058;2023-03-01T05:38:28;-3.20;99.90
2611;DHT22;5612;51.134;17.058;2023-03-01T05:40:57;-3.20;99.90
2611;DHT22;5612;51.134;17.058;2023-03-01T05:43:29;-3.10;1.00
2611;DHT22;5612;51.134;17.058;2023-03-01T05:45:58;-3.00;1.00
2611;DHT22;5612;51.134;17.058;2023-03-01T05:48:28;-3.00;90.50
2611;DHT22;5612;51.134;17.058;2023-03-01T05:51:00;-2.90;1.00
2611;DHT22;5612;51.134;17.058;2023-03-01T05:53:29;-2.90;99.90
2611;DHT22;5612;51.134;17.058;2023-03-01T05:55:57;-2.90;99.90
2611;DHT22;5612;51.134;17.058;2023-03-01T05:58:27;-2.80;99.90
2611;DHT22;5612;51.134;17.058;2023-03-01T06:00:56;-2.70;99.90
2611;DHT22;5612;51.134;17.058;2023-03-01T06:03:25;-2.70;99.90
2611;DHT22;5612;51.134;17.058;2023-03-01T06:05:58;-2.70;99.90
2611;DHT22;5612;51.134;17.058;2023-03-01T06:08:27;-2.60;99.90
2611;DHT22;5612;51.134;17.058;2023-03-01T06:10:56;-2.60;1.00
2611;DHT22;5612;51.134;17.058;2023-03-01T06:13:25;-2.50;27.70
2611;DHT22;5612;51.134;17.058;2023-03-01T06:15:54;-2.50;1.00
2611;DHT22;5612;51.134;17.058;2023-03-01T06:18:22;-2.50;14.90
2611;DHT22;5612;51.134;17.058;2023-03-01T06:20:53;-2.40;1.00
2611;DHT22;5612;51.134;17.058;2023-03-01T06:23:23;-2.20;1.00
2611;DHT22;5612;51.134;17.058;2023-03-01T06:25:53;-2.00;1.00
2611;DHT22;5612;51.134;17.058;2023-03-01T06:28:22;-1.90;1.00
2611;DHT22;5612;51.134;17.058;2023-03-01T06:30:51;-1.80;99.90
2611;DHT22;5612;51.134;17.058;2023-03-01T06:33:21;-1.70;99.90
2611;DHT22;5612;51.134;17.058;2023-03-01T06:35:51;-1.60;99.90
2611;DHT22;5612;51.134;17.058;2023-03-01T06:38:24;-1.50;99.90
2611;DHT22;5612;51.134;17.058;2023-03-01T06:40:54;-1.40;99.90
2611;DHT22;5612;51.134;17.058;2023-03-01T06:43:23;-1.40;1.00
2611;DHT22;5612;51.134;17.058;2023-03-01T06:45:53;-1.30;99.90
2611;DHT22;5612;51.134;17.058;2023-03-01T06:48:22;-1.20;99.90
2611;DHT22;5612;51.134;17.058;2023-03-01T06:50:50;-1.20;1.00
2611;DHT22;5612;51.134;17.058;2023-03-01T06:53:19;-1.40;99.90
2611;DHT22;5612;51.134;17.058;2023-03-01T06:55:55;-1.30;1.00
2611;DHT22;5612;51.134;17.058;2023-03-01T06:58:24;-1.00;1.00
2611;DHT22;5612;51.134;17.058;2023-03-01T07:00:53;-0.60;1.00
2611;DHT22;5612;51.134;17.058;2023-03-01T07:03:22;-0.10;1.00
2611;DHT22;5612;51.134;17.058;2023-03-01T07:05:51;0.30;1.00
2611;DHT22;5612;51.134;17.058;2023-03-01T07:08:21;0.50;1.00
2611;DHT22;5612;51.134;17.058;2023-03-01T07:10:56;0.60;99.90
2611;DHT22;5612;51.134;17.058;2023-03-01T07:13:25;0.60;99.90
2611;DHT22;5612;51.134;17.058;2023-03-01T07:15:54;0.70;99.90
2611;DHT22;5612;51.134;17.058;2023-03-01T07:18:22;1.20;99.90
2611;DHT22;5612;51.134;17.058;2023-03-01T07:20:51;1.40;99.90
2611;DHT22;5612;51.134;17.058;2023-03-01T07:23:20;1.80;99.90
2611;DHT22;5612;51.134;17.058;2023-03-01T07:25:52;2.20;99.90
2611;DHT22;5612;51.134;17.058;2023-03-01T07:28:24;2.60;64.10
2611;DHT22;5612;51.134;17.058;2023-03-01T07:30:53;2.80;30.40
2611;DHT22;5612;51.134;17.058;2023-03-01T07:33:22;3.10;4.90
2611;DHT22;5612;51.134;17.058;2023-03-01T07:35:56;3.60;1.00
2611;DHT22;5612;51.134;17.058;2023-03-01T07:38:26;4.20;1.00
2611;DHT22;5612;51.134;17.058;2023-03-01T07:41:00;4.90;1.00
2611;DHT22;5612;51.134;17.058;2023-03-01T07:43:32;5.70;1.00
2611;DHT22;5612;51.134;17.058;2023-03-01T07:46:01;7.00;1.00
2611;DHT22;5612;51.134;17.058;2023-03-01T07:48:31;8.20;1.00
2611;DHT22;5612;51.134;17.058;2023-03-01T07:51:00;9.40;1.00
2611;DHT22;5612;51.134;17.058;2023-03-01T07:53:29;9.90;1.00
2611;DHT22;5612;51.134;17.058;2023-03-01T07:56:02;10.70;1.00
2611;DHT22;5612;51.134;17.058;2023-03-01T07:58:34;11.70;1.00
2611;DHT22;5612;51.134;17.058;2023-03-01T08:01:03;11.80;1.00
2611;DHT22;5612;51.134;17.058;2023-03-01T08:03:32;12.70;1.00
2611;DHT22;5612;51.134;17.058;2023-03-01T08:06:02;13.10;1.00
2611;DHT22;5612;51.134;17.058;2023-03-01T08:08:31;12.90;1.00
2611;DHT22;5612;51.134;17.058;2023-03-01T08:11:01;13.40;1.00
2611;DHT22;5612;51.134;17.058;2023-03-01T08:13:32;13.30;1.00
2611;DHT22;5612;51.134;17.058;2023-03-01T08:16:02;13.60;1.00
2611;DHT22;5612;51.134;17.058;2023-03-01T08:18:31;13.90;1.00
2611;DHT22;5612;51.134;17.058;2023-03-01T08:21:02;14.40;1.00
2611;DHT22;5612;51.134;17.058;2023-03-01T08:23:31;15.30;1.00
2611;DHT22;5612;51.134;17.058;2023-03-01T08:26:05;16.30;1.00
2611;DHT22;5612;51.134;17.058;2023-03-01T08:28:36;16.00;1.00
2611;DHT22;5612;51.134;17.058;2023-03-01T08:31:16;16.70;1.00
2611;DHT22;5612;51.134;17.058;2023-03-01T08:33:46;17.60;1.00
2611;DHT22;5612;51.134;17.058;2023-03-01T08:36:18;17.90;1.00
2611;DHT22;5612;51.134;17.058;2023-03-01T08:38:48;18.30;1.00
2611;DHT22;5612;51.134;17.058;2023-03-01T08:41:17;18.80;1.00
2611;DHT22;5612;51.134;17.058;2023-03-01T08:43:48;19.50;1.00
2611;DHT22;5612;51.134;17.058;2023-03-01T08:46:17;19.30;1.00
2611;DHT22;5612;51.134;17.058;2023-03-01T08:48:45;18.60;1.00
2611;DHT22;5612;51.134;17.058;2023-03-01T08:51:17;19.00;1.00
2611;DHT22;5612;51.134;17.058;2023-03-01T08:53:46;19.30;1.00
2611;DHT22;5612;51.134;17.058;2023-03-01T08:56:18;20.20;1.00
2611;DHT22;5612;51.134;17.058;2023-03-01T08:58:49;19.70;1.00
2611;DHT22;5612;51.134;17.058;2023-03-01T09:01:18;19.20;1.00
2611;DHT22;5612;51.134;17.058;2023-03-01T09:03:47;18.80;1.00
2611;DHT22;5612;51.134;17.058;2023-03-01T09:06:17;19.50;1.00
2611;DHT22;5612;51.134;17.058;2023-03-01T09:08:47;20.00;1.00
2611;DHT22;5612;51.134;17.058;2023-03-01T09:11:18;20.50;1.00
2611;DHT22;5612;51.134;17.058;2023-03-01T09:13:49;20.60;1.00
2611;DHT22;5612;51.134;17.058;2023-03-01T09:16:20;20.50;1.00
2611;DHT22;5612;51.134;17.058;2023-03-01T09:18:51;20.40;1.00
2611;DHT22;5612;51.134;17.058;2023-03-01T09:21:21;20.70;1.00
2611;DHT22;5612;51.134;17.058;2023-03-01T09:24:08;20.80;1.00
2611;DHT22;5612;51.134;17.058;2023-03-01T09:26:41;20.60;1.00
2611;DHT22;5612;51.134;17.058;2023-03-01T09:29:11;21.20;1.00
2611;DHT22;5612;51.134;17.058;2023-03-01T09:31:41;20.80;1.00
2611;DHT22;5612;51.134;17.058;2023-03-01T09:34:10;21.30;1.00
2611;DHT22;5612;51.134;17.058;2023-03-01T09:36:39;21.00;1.00
2611;DHT22;5612;51.134;17.058;2023-03-01T09:39:08;21.30;1.00
2611;DHT22;5612;51.134;17.058;2023-03-01T09:41:49;21.80;1.00
2611;DHT22;5612;51.134;17.058;2023-03-01T09:44:29;22.10;1.00
2611;DHT22;5612;51.134;17.058;2023-03-01T09:47:00;22.10;1.00
2611;DHT22;5612;51.134;17.058;2023-03-01T09:49:32;22.90;1.00
2611;DHT22;5612;51.134;17.058;2023-03-01T09:52:21;23.60;1.00
2611;DHT22;5612;51.134;17.058;2023-03-01T09:54:54;23.40;1.00
2611;DHT22;5612;51.134;17.058;2023-03-01T09:57:30;23.40;1.00
2611;DHT22;5612;51.134;17.058;2023-03-01T10:00:20;22.90;1.00
2611;DHT22;5612;51.134;17.058;2023-03-01T10:02:55;23.10;1.00
2611;DHT22;5612;51.134;17.058;2023-03-01T10:05:39;23.50;1.00
2611;DHT22;5612;51.134;17.058;2023-03-01T10:08:46;23.30;1.00
2611;DHT22;5612;51.134;17.058;2023-03-01T10:11:21;22.20;1.00
2611;DHT22;5612;51.134;17.058;2023-03-01T10:13:57;22.70;1.00
2611;DHT22;5612;51.134;17.058;2023-03-01T10:16:38;23.70;1.00
2611;DHT22;5612;51.134;17.058;2023-03-01T10:19:12;24.40;1.00
2611;DHT22;5612;51.134;17.058;2023-03-01T10:21:45;24.70;1.00
2611;DHT22;5612;51.134;17.058;2023-03-01T10:24:17;25.70;1.00
2611;DHT22;5612;51.134;17.058;2023-03-01T10:26:54;25.90;1.00
2611;DHT22;5612;51.134;17.058;2023-03-01T10:29:27;25.80;1.00
2611;DHT22;5612;51.134;17.058;2023-03-01T10:32:00;25.40;1.00
2611;DHT22;5612;51.134;17.058;2023-03-01T10:34:35;24.90;1.00
2611;DHT22;5612;51.134;17.058;2023-03-01T10:37:11;25.60;1.00
2611;DHT22;5612;51.134;17.058;2023-03-01T10:39:56;25.80;1.00
2611;DHT22;5612;51.134;17.058;2023-03-01T10:42:28;26.40;1.00
2611;DHT22;5612;51.134;17.058;2023-03-01T10:44:57;26.30;1.00
2611;DHT22;5612;51.134;17.058;2023-03-01T10:47:28;26.60;1.00
2611;DHT22;5612;51.134;17.058;2023-03-01T10:50:01;26.00;1.00
2611;DHT22;5612;51.134;17.058;2023-03-01T10:52:34;26.00;1.00
2611;DHT22;5612;51.134;17.058;2023-03-01T10:55:19;26.60;1.00
2611;DHT22;5612;51.134;17.058;2023-03-01T10:58:06;27.20;1.00
2611;DHT22;5612;51.134;17.058;2023-03-01T11:00:47;27.30;1.00
2611;DHT22;5612;51.134;17.058;2023-03-01T11:03:21;26.20;1.00
2611;DHT22;5612;51.134;17.058;2023-03-01T11:05:57;26.80;1.00
2611;DHT22;5612;51.134;17.058;2023-03-01T11:08:33;27.30;1.00
2611;DHT22;5612;51.134;17.058;2023-03-01T11:11:09;27.00;1.00
2611;DHT22;5612;51.134;17.058;2023-03-01T11:13:54;27.20;1.00
2611;DHT22;5612;51.134;17.058;2023-03-01T11:16:32;27.80;1.00
2611;DHT22;5612;51.134;17.058;2023-03-01T11:19:15;27.70;1.00
2611;DHT22;5612;51.134;17.058;2023-03-01T11:21:55;27.30;1.00
2611;DHT22;5612;51.134;17.058;2023-03-01T11:24:29;26.80;1.00
2611;DHT22;5612;51.134;17.058;2023-03-01T11:27:03;27.70;1.00
2611;DHT22;5612;51.134;17.058;2023-03-01T11:29:37;27.80;1.00
2611;DHT22;5612;51.134;17.058;2023-03-01T11:32:15;26.50;1.00
2611;DHT22;5612;51.134;17.058;2023-03-01T11:34:50;27.50;1.00
2611;DHT22;5612;51.134;17.058;2023-03-01T11:37:32;26.20;1.00
2611;DHT22;5612;51.134;17.058;2023-03-01T11:40:10;27.20;1.00
2611;DHT22;5612;51.134;17.058;2023-03-01T11:42:50;27.90;1.00
2611;DHT22;5612;51.134;17.058;2023-03-01T11:45:23;27.60;1.00
2611;DHT22;5612;51.134;17.058;2023-03-01T11:48:05;26.20;1.00
2611;DHT22;5612;51.134;17.058;2023-03-01T11:50:40;26.30;1.00
2611;DHT22;5612;51.134;17.058;2023-03-01T11:53:32;26.20;1.00
2611;DHT22;5612;51.134;17.058;2023-03-01T11:56:13;26.00;1.00
2611;DHT22;5612;51.134;17.058;2023-03-01T11:59:07;26.40;1.00
2611;DHT22;5612;51.134;17.058;2023-03-01T12:01:51;25.50;1.00
2611;DHT22;5612;51.134;17.058;2023-03-01T12:07:37;24.60;1.00
2611;DHT22;5612;51.134;17.058;2023-03-01T12:10:21;24.40;1.00
2611;DHT22;5612;51.134;17.058;2023-03-01T12:12:58;23.20;1.00
2611;DHT22;5612;51.134;17.058;2023-03-01T12:15:39;23.90;1.00
2611;DHT22;5612;51.134;17.058;2023-03-01T12:18:34;24.20;1.00
2611;DHT22;5612;51.134;17.058;2023-03-01T12:21:16;23.90;1.00
2611;DHT22;5612;51.134;17.058;2023-03-01T12:24:06;24.30;1.00
2611;DHT22;5612;51.134;17.058;2023-03-01T12:26:46;24.70;1.00
2611;DHT22;5612;51.134;17.058;2023-03-01T12:29:25;25.80;1.00
2611;DHT22;5612;51.134;17.058;2023-03-01T12:32:10;25.40;1.00
2611;DHT22;5612;51.134;17.058;2023-03-01T12:37:54;24.60;1.00
2611;DHT22;5612;51.134;17.058;2023-03-01T12:40:37;25.40;1.00
2611;DHT22;5612;51.134;17.058;2023-03-01T12:43:17;26.40;1.00
2611;DHT22;5612;51.134;17.058;2023-03-01T12:46:01;26.70;1.00
2611;DHT22;5612;51.134;17.058;2023-03-01T12:48:43;27.60;1.00
2611;DHT22;5612;51.134;17.058;2023-03-01T12:51:20;27.60;1.00
2611;DHT22;5612;51.134;17.058;2023-03-01T12:53:53;26.90;1.00
2611;DHT22;5612;51.134;17.058;2023-03-01T12:56:27;26.20;1.00
2611;DHT22;5612;51.134;17.058;2023-03-01T12:59:03;27.30;1.00
2611;DHT22;5612;51.134;17.058;2023-03-01T13:01:39;26.00;1.00
2611;DHT22;5612;51.134;17.058;2023-03-01T13:07:18;26.40;1.00
2611;DHT22;5612;51.134;17.058;2023-03-01T13:09:54;26.60;1.00
2611;DHT22;5612;51.134;17.058;2023-03-01T13:12:51;26.60;1.00
2611;DHT22;5612;51.134;17.058;2023-03-01T13:15:28;26.20;1.00
2611;DHT22;5612;51.134;17.058;2023-03-01T13:17:58;26.10;1.00
2611;DHT22;5612;51.134;17.058;2023-03-01T13:20:32;26.40;1.00
2611;DHT22;5612;51.134;17.058;2023-03-01T13:23:07;27.10;1.00
2611;DHT22;5612;51.134;17.058;2023-03-01T13:26:03;25.80;1.00
2611;DHT22;5612;51.134;17.058;2023-03-01T13:28:51;26.00;1.00
2611;DHT22;5612;51.134;17.058;2023-03-01T13:34:51;24.30;1.00
2611;DHT22;5612;51.134;17.058;2023-03-01T13:37:33;24.70;1.00
2611;DHT22;5612;51.134;17.058;2023-03-01T13:42:52;23.50;1.00
2611;DHT22;5612;51.134;17.058;2023-03-01T13:45:39;23.20;1.00
2611;DHT22;5612;51.134;17.058;2023-03-01T13:48:11;22.90;1.00
2611;DHT22;5612;51.134;17.058;2023-03-01T13:50:48;23.10;1.00
2611;DHT22;5612;51.134;17.058;2023-03-01T13:53:20;22.80;1.00
2611;DHT22;5612;51.134;17.058;2023-03-01T13:55:52;23.40;1.00
2611;DHT22;5612;51.134;17.058;2023-03-01T13:58:28;23.40;1.00
2611;DHT22;5612;51.134;17.058;2023-03-01T14:01:01;24.00;1.00
2611;DHT22;5612;51.134;17.058;2023-03-01T14:03:31;23.40;1.00
2611;DHT22;5612;51.134;17.058;2023-03-01T14:06:04;23.40;1.00
2611;DHT22;5612;51.134;17.058;2023-03-01T14:08:43;23.90;1.00
2611;DHT22;5612;51.134;17.058;2023-03-01T14:11:43;23.30;1.00
2611;DHT22;5612;51.134;17.058;2023-03-01T14:14:40;22.80;1.00
2611;DHT22;5612;51.134;17.058;2023-03-01T14:20:13;23.50;1.00
2611;DHT22;5612;51.134;17.058;2023-03-01T14:22:43;23.30;1.00
2611;DHT22;5612;51.134;17.058;2023-03-01T14:25:31;23.90;1.00
2611;DHT22;5612;51.134;17.058;2023-03-01T14:28:03;24.00;1.00
2611;DHT22;5612;51.134;17.058;2023-03-01T14:30:36;23.80;1.00
2611;DHT22;5612;51.134;17.058;2023-03-01T14:33:19;24.40;1.00
2611;DHT22;5612;51.134;17.058;2023-03-01T14:35:56;23.90;1.00
2611;DHT22;5612;51.134;17.058;2023-03-01T14:38:32;23.30;1.00
2611;DHT22;5612;51.134;17.058;2023-03-01T14:41:03;23.60;1.00
2611;DHT22;5612;51.134;17.058;2023-03-01T14:43:34;23.10;1.00
2611;DHT22;5612;51.134;17.058;2023-03-01T14:46:04;23.20;1.00
2611;DHT22;5612;51.134;17.058;2023-03-01T14:48:34;23.40;1.00
2611;DHT22;5612;51.134;17.058;2023-03-01T14:51:05;23.10;1.00
2611;DHT22;5612;51.134;17.058;2023-03-01T14:53:34;23.00;1.00
2611;DHT22;5612;51.134;17.058;2023-03-01T14:56:17;23.00;1.00
2611;DHT22;5612;51.134;17.058;2023-03-01T14:58:47;22.60;1.00
2611;DHT22;5612;51.134;17.058;2023-03-01T15:01:20;22.80;1.00
2611;DHT22;5612;51.134;17.058;2023-03-01T15:03:51;23.00;1.00
2611;DHT22;5612;51.134;17.058;2023-03-01T15:06:22;23.40;1.00
2611;DHT22;5612;51.134;17.058;2023-03-01T15:08:53;21.80;1.00
2611;DHT22;5612;51.134;17.058;2023-03-01T15:11:27;21.90;1.00
2611;DHT22;5612;51.134;17.058;2023-03-01T15:13:57;21.90;1.00
2611;DHT22;5612;51.134;17.058;2023-03-01T15:16:28;22.00;1.00
2611;DHT22;5612;51.134;17.058;2023-03-01T15:19:01;21.70;1.00
2611;DHT22;5612;51.134;17.058;2023-03-01T15:21:32;21.40;1.00
2611;DHT22;5612;51.134;17.058;2023-03-01T15:24:05;21.00;1.00
2611;DHT22;5612;51.134;17.058;2023-03-01T15:26:41;21.20;1.00
2611;DHT22;5612;51.134;17.058;2023-03-01T15:29:16;20.90;1.00
2611;DHT22;5612;51.134;17.058;2023-03-01T15:31:54;20.60;1.00
2611;DHT22;5612;51.134;17.058;2023-03-01T15:34:27;20.70;1.00
2611;DHT22;5612;51.134;17.058;2023-03-01T15:36:58;20.50;1.00
2611;DHT22;5612;51.134;17.058;2023-03-01T15:39:36;19.50;1.00
2611;DHT22;5612;51.134;17.058;2023-03-01T15:42:08;19.40;1.00
2611;DHT22;5612;51.134;17.058;2023-03-01T15:44:40;19.40;1.00
2611;DHT22;5612;51.134;17.058;2023-03-01T15:47:27;19.00;1.00
2611;DHT22;5612;51.134;17.058;2023-03-01T15:49:59;18.60;1.00
2611;DHT22;5612;51.134;17.058;2023-03-01T15:52:33;18.10;1.00
2611;DHT22;5612;51.134;17.058;2023-03-01T15:55:15;17.80;1.00
2611;DHT22;5612;51.134;17.058;2023-03-01T15:57:45;17.40;1.00
2611;DHT22;5612;51.134;17.058;2023-03-01T16:00:15;16.70;1.00
2611;DHT22;5612;51.134;17.058;2023-03-01T16:02:45;16.20;1.00
2611;DHT22;5612;51.134;17.058;2023-03-01T16:05:22;15.80;1.00
2611;DHT22;5612;51.134;17.058;2023-03-01T16:07:52;15.40;1.00
2611;DHT22;5612;51.134;17.058;2023-03-01T16:10:22;14.90;1.00
2611;DHT22;5612;51.134;17.058;2023-03-01T16:12:51;14.30;1.00
2611;DHT22;5612;51.134;17.058;2023-03-01T16:15:22;13.80;1.00
2611;DHT22;5612;51.134;17.058;2023-03-01T16:17:52;13.70;1.00
2611;DHT22;5612;51.134;17.058;2023-03-01T16:20:23;13.30;1.00
2611;DHT22;5612;51.134;17.058;2023-03-01T16:22:58;12.70;1.00
2611;DHT22;5612;51.134;17.058;2023-03-01T16:25:28;12.20;1.00
2611;DHT22;5612;51.134;17.058;2023-03-01T16:27:58;11.80;1.00
2611;DHT22;5612;51.134;17.058;2023-03-01T16:30:29;11.50;1.00
2611;DHT22;5612;51.134;17.058;2023-03-01T16:32:58;11.20;1.00
2611;DHT22;5612;51.134;17.058;2023-03-01T16:35:28;10.70;1.00
2611;DHT22;5612;51.134;17.058;2023-03-01T16:37:59;10.30;1.00
2611;DHT22;5612;51.134;17.058;2023-03-01T16:40:29;10.30;1.00
2611;DHT22;5612;51.134;17.058;2023-03-01T16:42:59;10.20;1.00
2611;DHT22;5612;51.134;17.058;2023-03-01T16:45:33;10.00;1.00
2611;DHT22;5612;51.134;17.058;2023-03-01T16:48:03;9.90;1.00
2611;DHT22;5612;51.134;17.058;2023-03-01T16:50:34;9.80;1.00
2611;DHT22;5612;51.134;17.058;2023-03-01T16:53:03;9.60;1.00